Time;durP1;ratioP1;P1;durP2;ratioP2;P2;SDS_P1;SDS_P2;PMS_P1;PMS_P2;Temp;Humidity;BMP_temperature;BMP_pressure;BME280_temperature;BME280_humidity;BME280_pressure;Samples;Min_cycle;Max_cycle;Signal;HPM_P1;HPM_P2
2021/09/23 00:02:35;;;;;;;11.25;6.35;;;9.20;98.00;;;;;;5095205;28;20032;-70
2021/09/23 00:05:01;;;;;;;14.98;6.68;;;9.20;98.00;;;;;;5095756;28;20020;-71
2021/09/23 00:07:26;;;;;;;10.02;6.05;;;9.20;98.00;;;;;;5094928;28;20485;-69
2021/09/23 00:09:52;;;;;;;10.32;6.53;;;9.10;98.00;;;;;;5094693;28;20024;-71
2021/09/23 00:12:18;;;;;;;13.95;7.30;;;9.30;98.00;;;;;;5092357;28;20035;-70
2021/09/23 00:14:43;;;;;;;12.55;6.80;;;9.20;98.00;;;;;;5095490;28;20066;-71
2021/09/23 00:17:09;;;;;;;11.10;7.10;;;9.10;98.00;;;;;;5094052;28;20052;-70
2021/09/23 00:19:35;;;;;;;12.27;7.13;;;9.10;98.00;;;;;;5095981;28;20052;-70
2021/09/23 00:22:00;;;;;;;12.15;6.68;;;9.20;98.00;;;;;;5094726;28;20028;-69
2021/09/23 00:24:26;;;;;;;11.75;5.95;;;9.20;98.00;;;;;;5094116;28;20027;-69
2021/09/23 00:26:57;;;;;;;12.38;6.35;;;9.40;98.00;;;;;;5093661;28;20058;-68
2021/09/23 00:29:23;;;;;;;12.93;6.38;;;9.60;98.00;;;;;;5094848;28;20024;-68
2021/09/23 00:31:48;;;;;;;15.45;6.25;;;9.80;98.00;;;;;;5095053;28;20161;-69
2021/09/23 00:34:14;;;;;;;10.35;6.20;;;9.80;98.00;;;;;;5095159;28;20106;-71
2021/09/23 00:36:39;;;;;;;11.82;6.35;;;9.60;98.00;;;;;;5093851;28;20088;-71
2021/09/23 00:39:08;;;;;;;15.02;7.90;;;9.40;98.00;;;;;;5094993;28;20032;-70
2021/09/23 00:41:34;;;;;;;13.15;7.03;;;9.20;98.00;;;;;;5092679;28;20408;-71
2021/09/23 00:44:30;;;;;;;12.55;6.38;;;9.20;98.00;;;;;;5094596;28;20042;-70
2021/09/23 00:46:56;;;;;;;15.02;7.68;;;9.20;98.00;;;;;;5089560;28;20020;-71
2021/09/23 00:49:21;;;;;;;11.45;6.57;;;9.20;98.00;;;;;;5098501;28;20089;-70
2021/09/23 00:51:47;;;;;;;13.50;7.30;;;9.20;98.00;;;;;;5098715;28;20020;-70
2021/09/23 00:54:13;;;;;;;12.32;7.15;;;9.20;98.00;;;;;;5098301;28;20028;-71
2021/09/23 00:56:39;;;;;;;12.90;7.22;;;9.10;98.00;;;;;;5096399;28;20062;-69
2021/09/23 00:59:05;;;;;;;15.25;8.10;;;8.90;98.00;;;;;;5098325;28;20027;-71
2021/09/23 01:01:31;;;;;;;14.07;7.63;;;8.80;98.00;;;;;;5097786;28;20071;-69
2021/09/23 01:03:56;;;;;;;11.85;6.78;;;8.70;98.00;;;;;;5098427;28;20320;-69
2021/09/23 01:06:22;;;;;;;10.45;6.35;;;8.80;98.00;;;;;;5098562;28;20024;-69
2021/09/23 01:08:59;;;;;;;12.85;6.88;;;9.00;98.00;;;;;;5097444;28;20679;-69
2021/09/23 01:11:28;;;;;;;10.65;6.95;;;9.10;98.00;;;;;;5095941;28;20371;-68
2021/09/23 01:13:54;;;;;;;10.93;6.35;;;9.00;98.00;;;;;;5097065;28;20039;-69
2021/09/23 01:16:19;;;;;;;16.45;7.65;;;8.80;98.00;;;;;;5095082;28;20081;-69
2021/09/23 01:18:45;;;;;;;12.95;7.63;;;8.60;98.00;;;;;;5098072;28;20036;-70
2021/09/23 01:21:11;;;;;;;12.45;7.55;;;8.50;98.00;;;;;;5098707;28;20024;-70
2021/09/23 01:23:38;;;;;;;15.07;7.88;;;8.40;98.00;;;;;;5097901;28;20020;-69
2021/09/23 01:26:08;;;;;;;16.60;7.72;;;8.20;98.00;;;;;;5097206;28;20032;-71
2021/09/23 01:28:34;;;;;;;15.98;8.48;;;8.10;98.00;;;;;;5097757;28;20089;-70
2021/09/23 01:31:01;;;;;;;12.07;7.65;;;7.80;98.00;;;;;;5092593;28;20369;-71
2021/09/23 01:33:27;;;;;;;15.60;8.38;;;7.70;98.00;;;;;;5098387;28;20055;-71
2021/09/23 01:35:53;;;;;;;13.57;8.57;;;7.70;98.00;;;;;;5097217;28;20035;-70
2021/09/23 01:38:18;;;;;;;16.65;9.60;;;7.70;98.00;;;;;;5096635;28;20032;-70
2021/09/23 01:40:44;;;;;;;14.65;9.30;;;7.50;98.00;;;;;;5097944;28;20028;-69
2021/09/23 01:43:10;;;;;;;17.20;10.13;;;7.40;98.00;;;;;;5097694;28;20434;-70
2021/09/23 01:45:36;;;;;;;13.73;9.05;;;7.50;98.00;;;;;;5097545;28;20028;-70
2021/09/23 01:48:02;;;;;;;14.95;8.35;;;7.50;98.00;;;;;;5098425;28;20023;-70
2021/09/23 01:50:28;;;;;;;21.98;9.77;;;7.40;98.00;;;;;;5096176;28;20024;-69
2021/09/23 01:52:53;;;;;;;15.55;9.25;;;7.40;98.00;;;;;;5097693;28;20028;-70
2021/09/23 01:55:19;;;;;;;20.42;10.07;;;7.40;97.90;;;;;;5097784;28;20031;-70
2021/09/23 01:57:45;;;;;;;13.93;8.70;;;7.30;98.00;;;;;;5095428;28;20321;-70
2021/09/23 02:00:11;;;;;;;13.55;8.65;;;7.10;98.00;;;;;;5096677;28;20039;-70
2021/09/23 02:02:39;;;;;;;13.35;8.63;;;7.00;98.00;;;;;;5097225;28;20020;-70
2021/09/23 02:05:05;;;;;;;16.38;8.38;;;6.90;98.00;;;;;;5097342;28;20029;-71
2021/09/23 02:07:31;;;;;;;15.45;9.75;;;7.00;97.40;;;;;;5098030;28;20023;-69
2021/09/23 02:09:56;;;;;;;18.15;9.43;;;7.10;96.70;;;;;;5091714;28;20039;-69
2021/09/23 02:12:22;;;;;;;17.48;10.23;;;7.10;97.20;;;;;;5096677;28;20086;-69
2021/09/23 02:14:49;;;;;;;16.30;9.52;;;7.00;97.30;;;;;;5096898;28;20028;-70
2021/09/23 02:17:15;;;;;;;16.85;9.55;;;6.90;97.10;;;;;;5096872;28;20123;-70
2021/09/23 02:19:43;;;;;;;14.50;9.20;;;6.90;97.00;;;;;;5097263;28;20116;-70
2021/09/23 02:22:09;;;;;;;16.02;9.00;;;6.90;96.70;;;;;;5085790;28;20417;-71
2021/09/23 02:24:35;;;;;;;15.55;8.90;;;6.90;96.40;;;;;;5097634;28;20052;-70
2021/09/23 02:27:00;;;;;;;19.67;10.88;;;6.90;96.70;;;;;;5096288;28;20097;-71
2021/09/23 02:29:26;;;;;;;19.90;12.05;;;7.10;95.00;;;;;;5096714;28;20070;-70
2021/09/23 02:31:52;;;;;;;19.15;10.73;;;7.40;95.20;;;;;;5097413;28;20035;-70
2021/09/23 02:34:17;;;;;;;21.67;11.23;;;7.40;95.80;;;;;;5096008;28;20095;-71
2021/09/23 02:36:43;;;;;;;17.95;10.52;;;7.40;96.50;;;;;;5097557;28;20032;-70
2021/09/23 02:39:09;;;;;;;20.38;10.65;;;7.30;96.60;;;;;;5096236;28;20067;-70
2021/09/23 02:41:34;;;;;;;17.63;10.25;;;7.30;96.10;;;;;;5094600;28;20028;-69
2021/09/23 02:44:00;;;;;;;18.77;9.57;;;7.40;96.70;;;;;;5096024;28;20024;-70
2021/09/23 02:46:26;;;;;;;16.00;9.00;;;7.30;96.60;;;;;;5096519;28;20108;-70
2021/09/23 02:48:52;;;;;;;21.85;10.63;;;7.30;96.90;;;;;;5095817;28;20392;-70
2021/09/23 02:51:17;;;;;;;23.70;11.00;;;7.10;96.80;;;;;;5096520;28;20051;-71
2021/09/23 02:53:45;;;;;;;21.50;10.85;;;7.10;96.30;;;;;;5095131;28;20066;-71
2021/09/23 02:56:11;;;;;;;21.75;11.38;;;7.10;96.50;;;;;;5095374;28;20408;-71
2021/09/23 02:58:37;;;;;;;17.10;9.75;;;7.00;97.10;;;;;;5096659;28;20028;-70
2021/09/23 03:01:03;;;;;;;14.55;9.23;;;6.90;96.90;;;;;;5095464;28;20024;-69
2021/09/23 03:03:28;;;;;;;17.65;9.77;;;6.70;97.20;;;;;;5095302;28;20028;-71
2021/09/23 03:05:54;;;;;;;18.20;9.65;;;6.50;97.10;;;;;;5096793;28;20043;-71
2021/09/23 03:08:21;;;;;;;18.60;11.63;;;6.50;96.50;;;;;;5096228;28;20099;-71
2021/09/23 03:10:47;;;;;;;17.50;9.52;;;6.50;96.40;;;;;;5095907;28;20073;-69
2021/09/23 03:13:12;;;;;;;20.45;11.35;;;6.50;96.10;;;;;;5096167;28;20028;-70
2021/09/23 03:15:38;;;;;;;21.45;10.82;;;6.60;95.50;;;;;;5095427;28;20036;-69
2021/09/23 03:18:04;;;;;;;17.73;10.43;;;6.70;95.40;;;;;;5095706;28;20024;-69
2021/09/23 03:20:30;;;;;;;17.48;10.27;;;6.80;95.00;;;;;;5095603;28;20043;-69
2021/09/23 03:23:00;;;;;;;22.05;12.55;;;6.80;95.50;;;;;;5095586;28;20056;-68
2021/09/23 03:25:28;;;;;;;18.20;10.35;;;6.80;95.90;;;;;;5095499;28;20106;-69
2021/09/23 03:27:54;;;;;;;21.98;11.48;;;6.80;95.60;;;;;;5094898;28;20063;-71
2021/09/23 03:30:19;;;;;;;15.00;9.88;;;6.80;94.10;;;;;;5080514;28;20075;-71
2021/09/23 03:32:45;;;;;;;17.17;10.23;;;6.90;95.00;;;;;;5093220;28;20047;-70
2021/09/23 03:35:11;;;;;;;14.85;9.18;;;7.00;95.60;;;;;;5096071;28;20024;-70
2021/09/23 03:37:40;;;;;;;14.98;9.55;;;7.00;95.40;;;;;;5096137;28;20053;-70
2021/09/23 03:40:07;;;;;;;20.50;9.35;;;7.10;94.70;;;;;;5094368;28;20097;-70
2021/09/23 03:42:33;;;;;;;17.33;9.48;;;7.20;95.00;;;;;;5095068;28;20020;-69
2021/09/23 03:45:02;;;;;;;14.95;8.90;;;7.50;94.70;;;;;;5095438;28;20467;-70
2021/09/23 03:47:29;;;;;;;17.55;9.05;;;8.00;94.80;;;;;;5094771;28;20047;-70
2021/09/23 03:49:55;;;;;;;15.82;8.75;;;8.30;96.10;;;;;;5094896;28;20016;-69
2021/09/23 03:52:21;;;;;;;13.95;7.53;;;8.70;98.00;;;;;;5095598;28;20036;-69
2021/09/23 03:54:49;;;;;;;18.38;7.93;;;9.00;98.00;;;;;;5095458;28;20463;-70
2021/09/23 03:57:15;;;;;;;13.85;8.15;;;9.10;98.00;;;;;;5094483;28;20069;-71
2021/09/23 03:59:41;;;;;;;13.75;7.55;;;9.30;98.00;;;;;;5092705;28;20028;-70
2021/09/23 04:02:07;;;;;;;13.20;7.38;;;9.10;98.00;;;;;;5094465;28;20020;-70
2021/09/23 04:04:33;;;;;;;15.98;9.05;;;8.80;98.00;;;;;;5095457;28;20774;-71
2021/09/23 04:06:58;;;;;;;16.35;9.25;;;8.60;98.00;;;;;;5095550;28;20355;-71
2021/09/23 04:09:24;;;;;;;15.70;8.73;;;8.30;98.00;;;;;;5095679;28;20024;-69
2021/09/23 04:11:50;;;;;;;16.02;9.40;;;8.10;98.00;;;;;;5093907;28;20339;-70
2021/09/23 04:14:15;;;;;;;16.83;9.55;;;7.90;98.00;;;;;;5094549;28;20035;-70
2021/09/23 04:16:41;;;;;;;20.98;10.93;;;7.70;98.00;;;;;;5094857;28;20036;-70
2021/09/23 04:19:07;;;;;;;18.15;11.20;;;7.70;98.00;;;;;;5095278;28;20028;-71
2021/09/23 04:21:33;;;;;;;18.92;10.15;;;7.60;98.00;;;;;;5094044;28;20455;-69
2021/09/23 04:23:59;;;;;;;15.75;9.15;;;7.40;98.00;;;;;;5095387;28;20032;-70
2021/09/23 04:26:25;;;;;;;17.08;9.05;;;7.40;98.00;;;;;;5094090;28;20169;-70
2021/09/23 04:28:51;;;;;;;18.45;9.50;;;7.30;98.00;;;;;;5095094;28;20032;-71
2021/09/23 04:31:17;;;;;;;14.73;9.10;;;7.30;98.00;;;;;;5093822;28;20028;-69
2021/09/23 04:33:43;;;;;;;18.50;9.73;;;7.60;97.50;;;;;;5094747;28;20542;-71
2021/09/23 04:36:09;;;;;;;16.65;9.25;;;7.90;98.00;;;;;;5095751;28;20028;-70
2021/09/23 04:38:35;;;;;;;21.83;9.10;;;8.10;98.00;;;;;;5093343;28;20082;-70
2021/09/23 04:41:00;;;;;;;15.82;9.38;;;8.30;98.00;;;;;;5104057;28;20032;-71
2021/09/23 04:43:26;;;;;;;16.02;8.30;;;8.60;98.00;;;;;;5094884;28;20081;-70
2021/09/23 04:45:52;;;;;;;14.05;8.88;;;8.90;98.00;;;;;;5095268;28;20320;-70
2021/09/23 04:48:20;;;;;;;21.10;9.30;;;8.90;98.00;;;;;;5093112;28;20032;-71
2021/09/23 04:50:46;;;;;;;14.05;8.57;;;8.90;98.00;;;;;;5092209;28;20031;-69
2021/09/23 04:53:12;;;;;;;15.75;7.72;;;9.10;98.00;;;;;;5093063;28;20035;-70
2021/09/23 04:55:38;;;;;;;15.40;7.90;;;9.10;98.00;;;;;;5093815;28;20020;-70
2021/09/23 04:58:04;;;;;;;14.05;7.72;;;9.00;98.00;;;;;;5092338;28;20031;-70
2021/09/23 05:00:30;;;;;;;14.70;8.13;;;8.90;98.00;;;;;;5094138;28;20416;-71
2021/09/23 05:02:56;;;;;;;23.95;8.07;;;8.80;98.00;;;;;;5092838;28;20028;-70
2021/09/23 05:05:22;;;;;;;13.57;7.63;;;8.90;98.00;;;;;;5094732;28;20073;-71
2021/09/23 05:07:48;;;;;;;15.00;8.35;;;8.90;98.00;;;;;;5094625;28;20089;-71
2021/09/23 05:10:14;;;;;;;13.20;7.35;;;8.90;98.00;;;;;;5089205;28;20480;-70
2021/09/23 05:12:39;;;;;;;15.93;8.88;;;8.80;98.00;;;;;;5073871;28;20026;-70
2021/09/23 05:15:06;;;;;;;17.23;8.32;;;8.80;98.00;;;;;;5075186;28;20024;-71
2021/09/23 05:17:32;;;;;;;15.23;8.20;;;8.70;98.00;;;;;;5074930;28;20396;-70
2021/09/23 05:19:58;;;;;;;16.20;8.68;;;8.70;98.00;;;;;;5092388;28;20119;-71
2021/09/23 05:22:26;;;;;;;12.60;7.60;;;8.70;98.00;;;;;;5095339;28;20156;-70
2021/09/23 05:24:55;;;;;;;17.67;8.80;;;8.50;98.00;;;;;;5095203;28;20028;-71
2021/09/23 05:27:24;;;;;;;24.98;15.63;;;8.20;98.00;;;;;;5093914;28;20435;-70
2021/09/23 05:29:50;;;;;;;20.73;11.63;;;7.90;98.00;;;;;;5094865;28;20052;-71
2021/09/23 05:32:16;;;;;;;18.60;11.43;;;7.80;98.00;;;;;;5097281;28;20024;-70
2021/09/23 05:34:41;;;;;;;22.10;13.25;;;7.60;98.00;;;;;;5098884;28;20312;-70
2021/09/23 05:37:08;;;;;;;20.30;11.27;;;7.40;98.00;;;;;;5098968;28;20017;-70
2021/09/23 05:39:33;;;;;;;18.58;10.40;;;7.40;98.00;;;;;;5098924;28;20020;-71
2021/09/23 05:41:59;;;;;;;18.30;11.23;;;7.50;98.00;;;;;;5097341;28;20024;-70
2021/09/23 05:44:25;;;;;;;20.30;11.40;;;7.40;98.00;;;;;;5098676;28;20443;-71
2021/09/23 05:46:52;;;;;;;23.33;13.95;;;7.40;98.00;;;;;;5098744;28;20050;-71
2021/09/23 05:49:18;;;;;;;24.92;14.27;;;7.40;98.00;;;;;;5098441;28;20088;-70
2021/09/23 05:51:43;;;;;;;21.50;13.15;;;7.30;98.00;;;;;;5089028;28;20029;-70
2021/09/23 05:54:09;;;;;;;21.33;12.52;;;7.20;98.00;;;;;;5098807;28;20027;-70
2021/09/23 05:56:35;;;;;;;29.63;14.88;;;7.10;98.00;;;;;;5097341;28;20058;-70
2021/09/23 05:59:00;;;;;;;22.88;12.38;;;7.10;98.00;;;;;;5098052;28;20437;-71
2021/09/23 06:01:26;;;;;;;27.52;13.13;;;7.20;98.00;;;;;;5098499;28;20023;-70
2021/09/23 06:03:54;;;;;;;20.00;12.90;;;7.30;98.00;;;;;;5098365;28;20309;-70
2021/09/23 06:06:20;;;;;;;23.92;14.25;;;7.40;98.00;;;;;;5098407;28;20452;-70
2021/09/23 06:08:45;;;;;;;27.88;13.23;;;7.60;98.00;;;;;;5097996;28;20036;-69
2021/09/23 06:11:11;;;;;;;18.95;12.35;;;7.70;98.00;;;;;;5097079;28;20024;-70
2021/09/23 06:13:38;;;;;;;22.38;13.40;;;7.80;98.00;;;;;;5098463;28;20024;-68
2021/09/23 06:16:03;;;;;;;20.35;11.98;;;7.80;98.00;;;;;;5097912;28;20051;-68
2021/09/23 06:18:29;;;;;;;21.17;12.40;;;7.90;98.00;;;;;;5097881;28;20339;-68
2021/09/23 06:20:55;;;;;;;20.55;12.05;;;7.90;98.00;;;;;;5097410;28;20034;-68
2021/09/23 06:23:20;;;;;;;19.13;12.40;;;8.10;98.00;;;;;;5098260;28;20028;-71
2021/09/23 06:25:46;;;;;;;18.63;12.05;;;8.10;98.00;;;;;;5097056;28;20107;-70
2021/09/23 06:28:12;;;;;;;19.25;11.65;;;8.10;98.00;;;;;;5097426;28;20031;-70
2021/09/23 06:30:38;;;;;;;27.65;13.48;;;8.20;98.00;;;;;;5096991;28;20050;-71
2021/09/23 06:33:04;;;;;;;19.45;12.07;;;8.30;98.00;;;;;;5097714;28;20316;-71
2021/09/23 06:35:32;;;;;;;22.92;12.27;;;8.40;98.00;;;;;;5097845;28;20047;-70
2021/09/23 06:37:57;;;;;;;24.13;13.50;;;8.50;98.00;;;;;;5097229;28;20106;-71
2021/09/23 06:40:23;;;;;;;18.13;11.18;;;8.50;98.00;;;;;;5097718;28;20104;-70
2021/09/23 06:42:49;;;;;;;22.33;14.45;;;8.60;98.00;;;;;;5095743;28;20428;-70
2021/09/23 06:45:16;;;;;;;24.05;12.35;;;8.70;98.00;;;;;;5097497;28;20012;-71
2021/09/23 06:47:43;;;;;;;20.85;12.25;;;8.90;98.00;;;;;;5097509;28;20050;-71
2021/09/23 06:50:09;;;;;;;16.20;11.02;;;9.10;98.00;;;;;;5097319;28;20110;-70
2021/09/23 06:52:35;;;;;;;17.58;11.00;;;9.20;98.00;;;;;;5096916;28;20067;-70
2021/09/23 06:55:01;;;;;;;19.52;11.63;;;9.40;98.00;;;;;;5097023;28;20047;-70
2021/09/23 06:57:27;;;;;;;18.23;11.45;;;9.50;98.00;;;;;;5095980;28;20440;-70
2021/09/23 06:59:53;;;;;;;24.33;12.27;;;9.70;98.00;;;;;;5097248;28;20062;-70
2021/09/23 07:02:18;;;;;;;15.20;9.70;;;9.90;98.00;;;;;;5097200;28;20084;-70
2021/09/23 07:04:47;;;;;;;16.83;9.05;;;10.00;98.00;;;;;;5097367;28;20012;-70
2021/09/23 07:07:16;;;;;;;13.63;7.93;;;10.10;98.00;;;;;;5097161;28;20021;-69
2021/09/23 07:09:44;;;;;;;15.55;9.00;;;10.30;98.00;;;;;;5096783;28;20028;-70
2021/09/23 07:12:10;;;;;;;15.00;7.70;;;10.40;98.00;;;;;;5095668;28;20145;-71
2021/09/23 07:14:35;;;;;;;12.90;8.20;;;10.60;98.00;;;;;;5097163;28;20024;-71
2021/09/23 07:17:01;;;;;;;11.75;7.72;;;10.80;98.00;;;;;;5095733;28;20048;-70
2021/09/23 07:19:27;;;;;;;16.13;7.68;;;10.80;98.00;;;;;;5096760;28;20043;-72
2021/09/23 07:21:52;;;;;;;14.10;9.13;;;10.90;98.00;;;;;;5095780;28;20294;-70
2021/09/23 07:24:18;;;;;;;12.32;7.80;;;10.90;98.00;;;;;;5096348;28;20031;-71
2021/09/23 07:26:44;;;;;;;11.32;7.15;;;10.90;98.00;;;;;;5095754;28;20016;-70
2021/09/23 07:29:14;;;;;;;9.82;6.38;;;10.90;98.00;;;;;;5096500;28;20035;-70
2021/09/23 07:31:41;;;;;;;12.98;6.93;;;10.90;98.00;;;;;;5096612;28;20050;-71
2021/09/23 07:34:06;;;;;;;11.93;6.63;;;11.10;98.00;;;;;;5096570;28;20020;-69
2021/09/23 07:36:32;;;;;;;12.57;6.15;;;11.20;98.00;;;;;;5096702;28;20371;-71
2021/09/23 07:38:58;;;;;;;12.88;6.03;;;11.40;98.00;;;;;;5096253;28;20344;-71
2021/09/23 07:41:24;;;;;;;12.32;5.75;;;11.60;97.80;;;;;;5095362;28;20074;-71
2021/09/23 07:43:50;;;;;;;11.38;5.82;;;11.90;97.40;;;;;;5096660;28;20028;-71
2021/09/23 07:46:15;;;;;;;11.70;5.88;;;12.00;96.60;;;;;;5096314;28;20053;-71
2021/09/23 07:48:41;;;;;;;11.68;6.32;;;12.20;96.40;;;;;;5096328;28;20024;-71
2021/09/23 07:51:07;;;;;;;10.48;6.10;;;12.40;96.00;;;;;;5096242;28;20032;-70
2021/09/23 07:53:32;;;;;;;9.63;5.40;;;12.50;95.60;;;;;;5095812;28;20032;-71
2021/09/23 07:55:59;;;;;;;8.52;5.07;;;12.70;94.80;;;;;;5093992;28;20031;-70
2021/09/23 07:58:25;;;;;;;10.50;5.78;;;13.00;93.60;;;;;;5095778;28;20039;-70
2021/09/23 08:00:52;;;;;;;9.27;5.35;;;13.20;93.60;;;;;;5095845;28;20025;-71
2021/09/23 08:03:17;;;;;;;9.80;5.60;;;13.00;92.80;;;;;;5096117;28;20073;-71
2021/09/23 08:05:43;;;;;;;9.93;5.30;;;13.00;94.70;;;;;;5096114;28;20408;-71
2021/09/23 08:08:09;;;;;;;10.73;5.40;;;13.40;93.80;;;;;;5095799;28;20040;-71
2021/09/23 08:10:36;;;;;;;9.65;5.50;;;13.50;91.70;;;;;;5096032;28;20024;-71
2021/09/23 08:13:02;;;;;;;9.00;4.80;;;14.00;90.90;;;;;;5095012;28;20056;-70
2021/09/23 08:15:30;;;;;;;12.75;5.82;;;15.20;90.20;;;;;;5095968;28;20028;-71
2021/09/23 08:17:56;;;;;;;10.65;5.90;;;16.10;86.20;;;;;;5095438;28;20138;-70
2021/09/23 08:20:22;;;;;;;10.20;5.07;;;17.10;84.90;;;;;;5095594;28;20032;-71
2021/09/23 08:22:54;;;;;;;7.88;4.60;;;17.90;82.60;;;;;;5095740;28;20328;-71
2021/09/23 08:25:20;;;;;;;9.52;4.20;;;18.80;80.00;;;;;;5094764;28;20028;-71
2021/09/23 08:27:45;;;;;;;7.97;4.65;;;19.60;77.10;;;;;;5094554;28;20031;-71
2021/09/23 08:30:11;;;;;;;9.82;5.00;;;19.60;76.80;;;;;;5095667;28;20109;-71
2021/09/23 08:32:37;;;;;;;9.13;4.53;;;19.20;78.00;;;;;;5095822;28;20099;-71
2021/09/23 08:35:06;;;;;;;9.07;4.90;;;19.80;76.20;;;;;;5095781;28;20020;-71
2021/09/23 08:37:33;;;;;;;7.72;3.90;;;20.20;74.80;;;;;;5095131;28;20032;-71
2021/09/23 08:39:59;;;;;;;7.65;3.85;;;20.80;74.10;;;;;;5095886;28;20313;-70
2021/09/23 08:42:26;;;;;;;7.13;5.03;;;21.40;72.90;;;;;;5094320;28;20031;-71
2021/09/23 08:44:51;;;;;;;8.45;4.72;;;21.70;71.80;;;;;;5095852;28;20016;-71
2021/09/23 08:47:17;;;;;;;9.05;4.63;;;22.00;71.00;;;;;;5095649;28;20324;-71
2021/09/23 08:49:43;;;;;;;7.35;4.38;;;22.40;71.20;;;;;;5095396;28;20055;-70
2021/09/23 08:52:09;;;;;;;8.00;4.13;;;22.80;70.20;;;;;;5095358;28;20128;-71
2021/09/23 08:54:34;;;;;;;9.13;4.80;;;22.90;68.20;;;;;;5094833;28;20047;-70
2021/09/23 08:57:01;;;;;;;8.73;4.45;;;22.20;68.00;;;;;;5094541;28;20031;-70
2021/09/23 08:59:29;;;;;;;6.45;3.35;;;22.10;68.90;;;;;;5095016;28;20439;-70
2021/09/23 09:01:55;;;;;;;7.15;3.25;;;21.90;68.70;;;;;;5095554;28;20341;-70
2021/09/23 09:04:29;;;;;;;5.18;2.75;;;21.80;67.90;;;;;;5095569;28;20028;-69
2021/09/23 09:06:54;;;;;;;6.60;3.60;;;21.80;68.50;;;;;;5097424;28;20032;-68
2021/09/23 09:09:21;;;;;;;8.43;4.55;;;22.90;66.90;;;;;;5099268;28;20030;-69
2021/09/23 09:11:49;;;;;;;6.63;3.92;;;23.40;66.00;;;;;;5098085;28;20020;-68
2021/09/23 09:14:29;;;;;;;8.07;4.18;;;23.30;66.30;;;;;;5099541;28;20038;-68
2021/09/23 09:17:06;;;;;;;7.80;4.65;;;23.20;66.70;;;;;;5099048;28;20313;-68
2021/09/23 09:19:51;;;;;;;9.23;4.70;;;22.80;66.80;;;;;;5098996;28;20036;-71
2021/09/23 09:22:20;;;;;;;8.43;4.68;;;21.80;68.40;;;;;;5084403;28;20043;-70
2021/09/23 09:24:57;;;;;;;9.88;4.45;;;20.90;71.40;;;;;;5098983;28;20413;-71
2021/09/23 09:27:28;;;;;;;10.27;4.00;;;20.40;72.60;;;;;;5097917;28;20020;-71
2021/09/23 09:29:59;;;;;;;7.07;4.20;;;20.80;71.50;;;;;;5098727;28;20023;-71
2021/09/23 09:32:58;;;;;;;9.07;3.70;;;21.50;69.60;;;;;;5099079;28;20405;-70
2021/09/23 09:35:34;;;;;;;7.65;4.22;;;21.90;68.70;;;;;;5086860;28;20043;-70
2021/09/23 09:38:04;;;;;;;7.40;3.20;;;22.20;68.00;;;;;;5098511;28;20020;-70
2021/09/23 09:40:34;;;;;;;5.38;3.30;;;22.40;66.40;;;;;;5098838;28;20012;-70
2021/09/23 09:43:11;;;;;;;7.32;3.78;;;22.10;66.10;;;;;;5097606;28;20052;-70
2021/09/23 09:45:37;;;;;;;5.57;3.00;;;21.50;68.50;;;;;;5097252;28;20440;-71
2021/09/23 09:48:04;;;;;;;7.38;3.40;;;21.70;69.20;;;;;;5098451;28;20036;-70
2021/09/23 09:50:38;;;;;;;9.65;3.47;;;22.50;68.40;;;;;;5098580;28;20046;-69
2021/09/23 09:53:08;;;;;;;;;;;22.40;69.30;;;;;;5099148;28;20403;-69
2021/09/23 09:55:40;;;;;;;6.40;3.33;;;22.20;69.70;;;;;;5098307;28;19995;-70
2021/09/23 09:58:06;;;;;;;5.65;3.20;;;22.80;68.40;;;;;;5097204;28;20336;-70
2021/09/23 10:00:33;;;;;;;6.75;3.30;;;23.20;68.40;;;;;;5098713;28;20397;-70
2021/09/23 10:03:00;;;;;;;5.95;3.58;;;23.50;66.30;;;;;;5098332;28;20456;-70
2021/09/23 10:05:26;;;;;;;7.85;3.70;;;23.40;65.40;;;;;;5097159;28;20103;-70
2021/09/23 10:07:58;;;;;;;6.50;2.88;;;23.20;66.10;;;;;;5098030;28;20028;-70
2021/09/23 10:10:29;;;;;;;6.95;2.65;;;23.10;66.10;;;;;;5098428;28;20103;-71
2021/09/23 10:12:56;;;;;;;6.63;2.97;;;23.40;66.40;;;;;;5097125;28;20020;-71
2021/09/23 10:15:23;;;;;;;5.82;3.00;;;23.60;66.30;;;;;;5097763;28;20024;-70
2021/09/23 10:17:51;;;;;;;5.80;2.90;;;24.20;65.50;;;;;;5097015;28;20385;-71
2021/09/23 10:20:20;;;;;;;6.25;3.22;;;24.00;64.60;;;;;;5097959;28;20016;-70
2021/09/23 10:22:46;;;;;;;6.38;3.10;;;22.80;68.20;;;;;;5097556;28;20019;-70
2021/09/23 10:25:15;;;;;;;6.15;3.35;;;23.30;67.40;;;;;;5097243;28;20468;-69
2021/09/23 10:28:01;;;;;;;7.18;3.50;;;23.60;66.50;;;;;;5095863;28;20021;-69
2021/09/23 10:30:34;;;;;;;5.18;3.05;;;23.90;65.90;;;;;;5097326;28;20077;-70
2021/09/23 10:33:01;;;;;;;8.40;3.15;;;23.90;65.50;;;;;;5097898;28;20029;-69
2021/09/23 10:35:29;;;;;;;6.40;3.17;;;23.80;66.30;;;;;;5097959;28;20065;-70
2021/09/23 10:37:57;;;;;;;7.20;3.45;;;24.20;66.30;;;;;;5097644;28;20107;-70
2021/09/23 10:40:23;;;;;;;6.20;2.88;;;24.60;65.00;;;;;;5097301;28;20401;-70
2021/09/23 10:42:50;;;;;;;5.82;2.55;;;24.60;64.40;;;;;;5096506;28;20084;-70
2021/09/23 10:45:18;;;;;;;5.95;2.85;;;25.10;63.90;;;;;;5097685;28;20083;-71
2021/09/23 10:47:46;;;;;;;5.03;2.78;;;25.10;63.00;;;;;;5097709;28;20024;-70
2021/09/23 10:50:13;;;;;;;7.53;2.75;;;24.80;62.70;;;;;;5097227;28;20065;-70
2021/09/23 10:52:40;;;;;;;6.22;2.80;;;24.20;64.10;;;;;;5096671;28;20031;-69
2021/09/23 10:55:07;;;;;;;5.72;3.22;;;24.20;65.60;;;;;;5097129;28;20028;-70
2021/09/23 10:57:33;;;;;;;6.88;2.85;;;24.30;64.50;;;;;;5095886;28;20040;-70
2021/09/23 11:00:02;;;;;;;6.32;2.92;;;24.50;66.50;;;;;;5097130;28;20150;-70
2021/09/23 11:02:30;;;;;;;7.70;3.08;;;25.20;65.20;;;;;;5097210;28;20027;-71
2021/09/23 11:04:58;;;;;;;6.68;3.65;;;24.90;65.30;;;;;;5097378;28;20448;-70
2021/09/23 11:07:26;;;;;;;6.97;3.00;;;24.70;66.10;;;;;;5097258;28;20081;-70
2021/09/23 11:10:15;;;;;;;6.50;3.00;;;25.20;65.10;;;;;;5096771;28;20091;-70
2021/09/23 11:12:43;;;;;;;6.82;3.30;;;25.40;64.80;;;;;;5096075;28;20016;-70
2021/09/23 11:15:12;;;;;;;6.70;3.00;;;24.90;66.00;;;;;;5097089;28;20333;-71
2021/09/23 11:17:39;;;;;;;5.90;3.20;;;24.90;66.70;;;;;;5096919;28;20098;-70
2021/09/23 11:20:12;;;;;;;8.52;3.28;;;25.40;64.90;;;;;;5096207;28;20020;-70
2021/09/23 11:22:44;;;;;;;4.85;2.53;;;25.50;64.90;;;;;;5096893;28;20024;-70
2021/09/23 11:25:21;;;;;;;8.77;2.70;;;25.80;63.90;;;;;;5096716;28;20353;-70
2021/09/23 11:27:48;;;;;;;5.95;2.60;;;25.60;64.80;;;;;;5095789;28;20024;-70
2021/09/23 11:30:16;;;;;;;6.28;2.97;;;25.70;65.70;;;;;;5096195;28;20059;-68
2021/09/23 11:32:50;;;;;;;7.78;3.15;;;26.10;64.50;;;;;;5096688;28;20035;-70
2021/09/23 11:35:19;;;;;;;6.93;3.13;;;25.70;64.50;;;;;;5096713;28;20047;-70
2021/09/23 11:37:45;;;;;;;5.35;2.80;;;24.70;67.20;;;;;;5096277;28;20355;-70
2021/09/23 11:40:22;;;;;;;5.95;3.17;;;24.50;66.50;;;;;;5096666;28;20024;-70
2021/09/23 11:42:48;;;;;;;6.60;2.70;;;24.70;66.40;;;;;;5095699;28;20020;-70
2021/09/23 11:45:19;;;;;;;7.18;3.78;;;24.60;67.60;;;;;;5096242;28;20070;-70
2021/09/23 11:47:50;;;;;;;6.78;3.47;;;24.70;66.10;;;;;;5096223;28;20088;-70
2021/09/23 11:50:43;;;;;;;8.85;3.47;;;24.80;66.90;;;;;;5096117;28;20419;-70
2021/09/23 11:53:12;;;;;;;6.88;3.17;;;24.60;65.90;;;;;;5095106;28;20047;-70
2021/09/23 11:55:43;;;;;;;6.75;3.05;;;23.80;66.60;;;;;;5096237;28;20032;-70
2021/09/23 11:58:14;;;;;;;6.47;3.42;;;23.80;67.70;;;;;;5095262;28;20024;-69
2021/09/23 12:00:47;;;;;;;5.72;2.95;;;23.80;66.50;;;;;;5095803;28;20097;-69
2021/09/23 12:03:17;;;;;;;6.10;2.60;;;23.50;66.00;;;;;;5096331;28;20020;-69
2021/09/23 12:05:44;;;;;;;5.10;2.55;;;23.20;68.00;;;;;;5096271;28;20052;-68
2021/09/23 12:08:18;;;;;;;7.38;2.63;;;23.60;66.30;;;;;;5095735;28;20035;-68
2021/09/23 12:10:48;;;;;;;5.32;2.50;;;23.80;65.60;;;;;;5095812;28;20043;-69
2021/09/23 12:13:21;;;;;;;6.18;2.58;;;24.40;64.70;;;;;;5095958;28;20432;-71
2021/09/23 12:15:54;;;;;;;4.97;2.47;;;24.60;63.60;;;;;;5095951;28;20108;-71
2021/09/23 12:18:23;;;;;;;;;;;24.40;62.30;;;;;;5096057;28;20290;-70
2021/09/23 12:20:51;;;;;;;5.20;2.70;;;24.00;63.00;;;;;;5095696;28;19998;-70
2021/09/23 12:23:29;;;;;;;6.68;2.60;;;23.60;65.80;;;;;;5095915;28;20024;-71
2021/09/23 12:26:08;;;;;;;4.28;2.30;;;23.60;66.80;;;;;;5094800;28;20016;-71
2021/09/23 12:28:39;;;;;;;5.45;2.78;;;23.70;62.80;;;;;;5095552;28;20031;-71
2021/09/23 12:31:07;;;;;;;4.28;2.35;;;23.60;64.00;;;;;;5095712;28;20077;-70
2021/09/23 12:33:33;;;;;;;10.50;2.55;;;23.90;61.90;;;;;;5095724;28;20039;-70
2021/09/23 12:36:09;;;;;;;6.18;2.72;;;23.70;62.70;;;;;;5095902;28;20032;-69
2021/09/23 12:38:35;;;;;;;4.75;2.33;;;23.30;63.10;;;;;;5095273;28;20035;-70
2021/09/23 12:41:14;;;;;;;4.60;2.58;;;22.90;61.30;;;;;;5094160;28;20024;-69
2021/09/23 12:43:39;;;;;;;5.20;2.75;;;22.50;61.10;;;;;;5095494;28;20031;-69
2021/09/23 12:46:11;;;;;;;4.95;2.30;;;22.60;62.30;;;;;;5095718;28;20099;-69
2021/09/23 12:48:37;;;;;;;5.07;2.35;;;22.60;62.30;;;;;;5095359;28;20036;-69